Time;durP1;ratioP1;P1;durP2;ratioP2;P2;SDS_P1;SDS_P2;PMS_P1;PMS_P2;Temp;Humidity;BMP_temperature;BMP_pressure;BME280_temperature;BME280_humidity;BME280_pressure;Samples;Min_cycle;Max_cycle;Signal;HPM_P1;HPM_P2
2023/10/15 00:00:16;;;;;;;;;;;8.80;83.70;;;;;;5054762;28;19909;-83
2023/10/15 00:02:42;;;;;;;;;;;8.80;84.30;;;;;;5043897;28;20349;-83
2023/10/15 00:05:26;;;;;;;;;;;8.90;83.90;;;;;;5040283;28;19913;-83
2023/10/15 00:07:52;;;;;;;;;;;8.90;84.50;;;;;;5036212;28;19935;-83
2023/10/15 00:10:19;;;;;;;;;;;8.90;84.00;;;;;;5038293;28;19917;-83
2023/10/15 00:12:45;;;;;;;;;;;8.90;84.20;;;;;;5039604;28;19913;-83
2023/10/15 00:15:18;;;;;;;;;;;8.80;83.50;;;;;;5043084;28;19955;-83
2023/10/15 00:17:44;;;;;;;;;;;8.80;83.80;;;;;;5035801;28;19913;-83
2023/10/15 00:20:13;;;;;;;;;;;8.80;83.30;;;;;;5041254;28;19909;-83
2023/10/15 00:22:39;;;;;;;;;;;8.80;83.30;;;;;;5041045;28;19922;-83
2023/10/15 00:25:11;;;;;;;;;;;8.90;83.20;;;;;;5038542;28;20366;-83
2023/10/15 00:27:37;;;;;;;;;;;8.90;83.00;;;;;;5034234;28;19920;-83
2023/10/15 00:30:05;;;;;;;;;;;8.90;82.80;;;;;;5035455;28;19932;-83
2023/10/15 00:32:32;;;;;;;;;;;8.90;82.70;;;;;;5037708;28;19921;-83
2023/10/15 00:34:58;;;;;;;;;;;8.90;82.80;;;;;;5036617;28;19991;-84
2023/10/15 00:37:23;;;;;;;;;;;8.90;82.80;;;;;;5036030;28;20492;-83
2023/10/15 00:39:49;;;;;;;;;;;8.90;83.10;;;;;;5033185;28;19963;-83
2023/10/15 00:42:15;;;;;;;;;;;9.00;83.40;;;;;;5034288;28;19935;-83
2023/10/15 00:44:41;;;;;;;;;;;9.00;83.30;;;;;;5040201;28;19917;-82
2023/10/15 00:47:15;;;;;;;;;;;9.00;83.20;;;;;;5032183;28;19917;-83
2023/10/15 00:49:44;;;;;;;;;;;9.10;82.90;;;;;;5029449;28;19924;-82
2023/10/15 00:52:10;;;;;;;;;;;9.00;82.70;;;;;;5035779;28;19909;-82
2023/10/15 00:54:38;;;;;;;;;;;9.10;82.50;;;;;;5035252;28;19920;-83
2023/10/15 00:57:25;;;;;;;;;;;9.10;82.60;;;;;;5032549;28;19919;-82
2023/10/15 00:59:54;;;;;;;;;;;9.00;82.10;;;;;;5031580;28;20369;-82
2023/10/15 01:02:23;;;;;;;;;;;9.00;81.30;;;;;;5036146;28;19913;-82
2023/10/15 01:04:51;;;;;;;;;;;9.00;82.10;;;;;;5039697;28;19917;-82
2023/10/15 01:07:43;;;;;;;;;;;9.10;82.00;;;;;;5032786;28;19955;-84
2023/10/15 01:10:18;;;;;;;;;;;9.10;81.60;;;;;;5034191;28;19914;-83
2023/10/15 01:12:43;;;;;;;;;;;9.10;81.20;;;;;;5030651;28;19920;-82
2023/10/15 01:15:09;;;;;;;;;;;9.00;82.30;;;;;;5039494;28;19932;-82
2023/10/15 01:17:37;;;;;;;;;;;9.10;81.50;;;;;;5035621;28;19975;-83
2023/10/15 01:20:06;;;;;;;;;;;9.00;82.20;;;;;;5040115;28;20345;-82
2023/10/15 01:22:32;;;;;;;;;;;9.10;82.70;;;;;;5034071;28;19913;-83
2023/10/15 01:25:08;;;;;;;;;;;9.00;82.40;;;;;;5034845;28;19967;-83
2023/10/15 01:27:36;;;;;;;;;;;8.90;82.20;;;;;;5038361;28;19909;-83
2023/10/15 01:30:02;;;;;;;;;;;8.90;82.90;;;;;;5036883;28;19992;-82
2023/10/15 01:32:31;;;;;;;;;;;8.80;82.40;;;;;;5037993;28;19998;-83
2023/10/15 01:34:59;;;;;;;;;;;8.70;83.00;;;;;;5038709;28;19957;-82
2023/10/15 01:37:24;;;;;;;;;;;8.80;82.80;;;;;;5034517;28;19956;-82
2023/10/15 01:39:51;;;;;;;;;;;8.70;82.40;;;;;;5037224;28;19975;-83
2023/10/15 01:48:03;;;;;;;;;;;8.80;83.20;;;;;;5033530;28;19952;-82
2023/10/15 01:50:49;;;;;;;;;;;8.70;81.70;;;;;;5036858;28;19923;-82
2023/10/15 01:53:15;;;;;;;;;;;8.80;82.30;;;;;;5037085;28;19914;-83
2023/10/15 01:55:52;;;;;;;;;;;8.80;83.00;;;;;;5037261;28;19919;-82
2023/10/15 01:58:19;;;;;;;;;;;8.80;83.00;;;;;;5037032;28;19920;-82
2023/10/15 02:00:44;;;;;;;;;;;8.70;83.60;;;;;;5035672;28;19913;-82
2023/10/15 02:03:14;;;;;;;;;;;8.70;83.90;;;;;;5040946;28;19981;-82
2023/10/15 02:05:42;;;;;;;;;;;8.70;83.40;;;;;;5030528;28;19966;-82
2023/10/15 02:08:16;;;;;;;;;;;8.70;83.20;;;;;;5043693;28;19966;-83
2023/10/15 02:10:46;;;;;;;;;;;8.60;83.70;;;;;;5033037;28;19917;-82
2023/10/15 02:13:22;;;;;;;;;;;8.60;84.70;;;;;;5042645;28;20389;-82
2023/10/15 02:15:49;;;;;;;;;;;8.60;84.90;;;;;;5042781;28;20004;-82
2023/10/15 02:18:17;;;;;;;;;;;8.70;84.80;;;;;;5056709;28;20470;-83
2023/10/15 02:23:20;;;;;;;;;;;8.80;84.40;;;;;;5047607;28;19984;-83
2023/10/15 02:25:57;;;;;;;;;;;8.90;84.20;;;;;;5041755;28;19963;-82
2023/10/15 02:28:25;;;;;;;;;;;9.00;84.00;;;;;;5060924;28;20259;-82
2023/10/15 02:33:38;;;;;;;;;;;9.20;82.70;;;;;;5043809;28;19913;-82
2023/10/15 02:36:08;;;;;;;;;;;9.10;83.60;;;;;;5038819;28;19983;-82
2023/10/15 02:38:38;;;;;;;;;;;9.10;82.80;;;;;;5043275;28;19917;-82
2023/10/15 02:41:05;;;;;;;;;;;9.10;83.00;;;;;;5038145;28;19916;-82
2023/10/15 02:43:31;;;;;;;;;;;9.20;83.10;;;;;;5049337;28;19959;-82
2023/10/15 02:46:21;;;;;;;;;;;9.20;83.40;;;;;;5058761;28;19917;-82
2023/10/15 02:48:48;;;;;;;;;;;9.20;83.10;;;;;;5051427;28;19916;-82
2023/10/15 02:51:17;;;;;;;;;;;9.20;82.90;;;;;;5045727;28;19913;-82
2023/10/15 02:53:50;;;;;;;;;;;9.20;83.10;;;;;;5038988;28;19909;-82
2023/10/15 02:56:17;;;;;;;;;;;9.10;83.10;;;;;;5041247;28;20353;-83
2023/10/15 02:58:44;;;;;;;;;;;9.10;83.30;;;;;;5043841;28;19909;-82
2023/10/15 03:01:17;;;;;;;;;;;9.20;83.40;;;;;;5042445;28;19943;-82
2023/10/15 03:03:52;;;;;;;;;;;9.20;83.30;;;;;;5036258;28;19917;-82
2023/10/15 03:06:19;;;;;;;;;;;9.10;83.60;;;;;;5042654;28;20338;-82
2023/10/15 03:08:45;;;;;;;;;;;9.20;83.60;;;;;;5045789;28;19913;-82
2023/10/15 03:11:14;;;;;;;;;;;9.30;82.90;;;;;;5043543;28;19918;-82
2023/10/15 03:13:45;;;;;;;;;;;9.20;83.00;;;;;;5040555;28;19920;-82
2023/10/15 03:16:10;;;;;;;;;;;9.30;82.80;;;;;;5041985;28;19913;-82
2023/10/15 03:18:36;;;;;;;;;;;9.30;82.80;;;;;;5037587;28;19960;-82
2023/10/15 03:21:14;;;;;;;;;;;9.30;82.80;;;;;;5042392;28;19909;-82
2023/10/15 03:23:41;;;;;;;;;;;9.20;82.80;;;;;;5039531;28;19912;-82
2023/10/15 03:26:07;;;;;;;;;;;9.20;82.60;;;;;;5038081;28;20418;-82
2023/10/15 03:28:34;;;;;;;;;;;9.30;82.40;;;;;;5035486;28;19925;-82
2023/10/15 03:31:00;;;;;;;;;;;9.40;83.50;;;;;;5036791;28;19937;-82
2023/10/15 03:33:30;;;;;;;;;;;9.30;82.50;;;;;;5034576;28;19920;-82
2023/10/15 03:35:56;;;;;;;;;;;9.40;83.40;;;;;;5039153;28;19963;-82
2023/10/15 03:38:32;;;;;;;;;;;9.40;82.30;;;;;;5037919;28;19939;-82
2023/10/15 03:41:21;;;;;;;;;;;9.30;83.10;;;;;;5035728;28;19909;-82
2023/10/15 03:43:50;;;;;;;;;;;9.20;83.30;;;;;;5034863;28;19963;-82
2023/10/15 03:46:25;;;;;;;;;;;9.20;83.50;;;;;;5032044;28;19947;-83
2023/10/15 03:48:50;;;;;;;;;;;9.10;84.20;;;;;;5036014;28;19909;-83
2023/10/15 03:51:20;;;;;;;;;;;9.20;84.60;;;;;;5034256;28;19924;-83
2023/10/15 03:53:49;;;;;;;;;;;9.50;83.70;;;;;;5034426;28;19952;-82
2023/10/15 03:56:19;;;;;;;;;;;9.50;82.80;;;;;;5037923;28;20379;-83
2023/10/15 03:58:49;;;;;;;;;;;9.40;83.10;;;;;;5034690;28;19919;-83
2023/10/15 04:01:18;;;;;;;;;;;9.40;84.20;;;;;;5035441;28;19913;-83
2023/10/15 04:03:49;;;;;;;;;;;9.40;84.00;;;;;;5041594;28;19917;-82
2023/10/15 04:06:15;;;;;;;;;;;9.50;84.30;;;;;;5038624;28;19909;-82
2023/10/15 04:11:29;;;;;;;;;;;9.50;84.70;;;;;;5038288;28;20007;-83
2023/10/15 04:13:56;;;;;;;;;;;9.40;85.00;;;;;;5033710;28;20362;-84
2023/10/15 04:16:23;;;;;;;;;;;9.30;85.00;;;;;;5034594;28;19939;-84
2023/10/15 04:18:48;;;;;;;;;;;9.20;85.20;;;;;;5037336;28;20351;-84
2023/10/15 04:21:16;;;;;;;;;;;9.10;84.70;;;;;;5037770;28;19949;-83
2023/10/15 04:23:49;;;;;;;;;;;9.00;84.80;;;;;;5036773;28;19959;-83
2023/10/15 04:26:14;;;;;;;;;;;9.00;85.70;;;;;;5037213;28;20374;-83
2023/10/15 04:28:40;;;;;;;;;;;9.00;85.50;;;;;;5035763;28;19913;-83
2023/10/15 04:31:11;;;;;;;;;;;9.00;85.40;;;;;;5036034;28;19965;-83
2023/10/15 04:33:41;;;;;;;;;;;9.10;85.50;;;;;;5044715;28;19897;-83
2023/10/15 04:36:09;;;;;;;;;;;9.00;86.10;;;;;;5055434;28;19908;-83
2023/10/15 04:38:38;;;;;;;;;;;9.10;86.20;;;;;;5043388;28;19913;-83
2023/10/15 04:41:03;;;;;;;;;;;9.10;86.10;;;;;;5043272;28;19914;-83
2023/10/15 04:43:29;;;;;;;;;;;9.10;86.10;;;;;;5038729;28;20000;-83
2023/10/15 04:45:56;;;;;;;;;;;9.10;86.10;;;;;;5041531;28;19960;-83
2023/10/15 04:48:30;;;;;;;;;;;9.00;86.20;;;;;;5033330;28;20593;-83
2023/10/15 04:50:57;;;;;;;;;;;9.00;86.10;;;;;;5036384;28;19913;-83
2023/10/15 04:55:48;;;;;;;;;;;9.10;86.30;;;;;;5048586;28;20382;-83
2023/10/15 04:58:15;;;;;;;;;;;9.00;86.70;;;;;;5044878;28;19932;-83
2023/10/15 05:00:40;;;;;;;;;;;9.10;86.00;;;;;;5038040;28;19924;-83
2023/10/15 05:03:06;;;;;;;;;;;9.10;86.20;;;;;;5039084;28;19913;-83
2023/10/15 05:05:31;;;;;;;;;;;9.00;85.80;;;;;;5041680;28;19919;-83
2023/10/15 05:08:00;;;;;;;;;;;8.90;86.00;;;;;;5054557;28;20576;-83
2023/10/15 05:10:33;;;;;;;;;;;8.80;86.00;;;;;;5038871;28;19928;-83
2023/10/15 05:12:59;;;;;;;;;;;8.80;86.30;;;;;;5037110;28;19914;-83
2023/10/15 05:15:25;;;;;;;;;;;8.80;86.60;;;;;;5038580;28;19910;-83
2023/10/15 05:17:50;;;;;;;;;;;8.70;86.60;;;;;;5036984;28;19913;-83
2023/10/15 05:20:16;;;;;;;;;;;8.70;86.30;;;;;;5035881;28;19912;-83
2023/10/15 05:22:41;;;;;;;;;;;8.70;86.50;;;;;;5034220;28;19917;-83
2023/10/15 05:25:17;;;;;;;;;;;8.70;86.10;;;;;;5034316;28;19910;-83
2023/10/15 05:27:45;;;;;;;;;;;8.60;86.50;;;;;;5039153;28;19914;-82
2023/10/15 05:30:12;;;;;;;;;;;8.70;86.10;;;;;;5037958;28;20455;-83
2023/10/15 05:32:37;;;;;;;;;;;8.70;86.60;;;;;;5031430;28;20007;-83
2023/10/15 05:35:03;;;;;;;;;;;8.70;86.20;;;;;;5037315;28;19913;-83
2023/10/15 05:37:29;;;;;;;;;;;8.70;86.10;;;;;;5037740;28;19919;-83
2023/10/15 05:39:54;;;;;;;;;;;8.80;86.60;;;;;;5037943;28;20003;-83
2023/10/15 05:42:20;;;;;;;;;;;8.80;85.90;;;;;;5042938;28;19909;-84
2023/10/15 05:44:45;;;;;;;;;;;8.60;86.20;;;;;;5058262;28;19906;-83
2023/10/15 05:47:11;;;;;;;;;;;8.60;86.30;;;;;;5050175;28;19928;-83
2023/10/15 05:49:37;;;;;;;;;;;8.60;86.20;;;;;;5038990;28;19909;-83
2023/10/15 05:52:03;;;;;;;;;;;8.60;85.70;;;;;;5052844;28;19960;-83
2023/10/15 05:54:31;;;;;;;;;;;8.60;85.80;;;;;;5040748;28;20433;-83
2023/10/15 05:56:56;;;;;;;;;;;8.60;86.20;;;;;;5042363;28;19913;-83
2023/10/15 05:59:22;;;;;;;;;;;8.60;86.00;;;;;;5042784;28;19920;-83
2023/10/15 06:01:47;;;;;;;;;;;8.70;85.90;;;;;;5035371;28;19913;-83
2023/10/15 06:04:13;;;;;;;;;;;8.80;86.00;;;;;;5038312;28;19914;-83
2023/10/15 06:06:38;;;;;;;;;;;8.70;86.30;;;;;;5028539;28;19963;-83
2023/10/15 06:09:05;;;;;;;;;;;8.70;86.40;;;;;;5029076;28;20220;-83
2023/10/15 06:11:30;;;;;;;;;;;8.80;86.10;;;;;;5033196;28;19921;-82
2023/10/15 06:13:56;;;;;;;;;;;8.70;86.10;;;;;;5033609;28;20348;-83
2023/10/15 06:16:22;;;;;;;;;;;8.60;86.30;;;;;;5036489;28;19919;-83
2023/10/15 06:18:47;;;;;;;;;;;8.60;86.60;;;;;;5035060;28;19916;-82
2023/10/15 06:21:14;;;;;;;;;;;8.50;86.30;;;;;;5050383;28;20242;-83
2023/10/15 06:23:39;;;;;;;;;;;8.50;86.60;;;;;;5043870;28;19917;-83
2023/10/15 06:26:06;;;;;;;;;;;8.60;86.60;;;;;;5035977;28;20525;-83
2023/10/15 06:28:31;;;;;;;;;;;8.60;85.50;;;;;;5035588;28;19917;-83
2023/10/15 06:30:57;;;;;;;;;;;8.60;84.90;;;;;;5030544;28;19920;-82
2023/10/15 06:33:22;;;;;;;;;;;8.60;84.90;;;;;;5032516;28;19939;-83
2023/10/15 06:35:48;;;;;;;;;;;8.50;85.00;;;;;;5052696;28;19916;-83
2023/10/15 06:38:17;;;;;;;;;;;8.50;85.70;;;;;;5036634;28;19978;-83
2023/10/15 06:40:43;;;;;;;;;;;8.50;85.60;;;;;;5034252;28;19963;-83
2023/10/15 06:43:09;;;;;;;;;;;8.60;86.00;;;;;;5032041;28;20009;-83
2023/10/15 06:45:34;;;;;;;;;;;8.50;85.80;;;;;;5035637;28;19948;-83
2023/10/15 06:48:00;;;;;;;;;;;8.50;86.40;;;;;;5036362;28;20352;-83
2023/10/15 06:50:26;;;;;;;;;;;8.50;86.40;;;;;;5041891;28;19961;-83
2023/10/15 06:52:52;;;;;;;;;;;8.60;86.30;;;;;;5065294;28;19921;-83
2023/10/15 06:55:20;;;;;;;;;;;8.60;86.40;;;;;;5055438;28;19921;-84
2023/10/15 06:57:46;;;;;;;;;;;8.60;86.80;;;;;;5048824;28;19980;-83
2023/10/15 07:00:12;;;;;;;;;;;8.60;86.70;;;;;;5049591;28;19917;-84
2023/10/15 07:02:38;;;;;;;;;;;8.60;85.80;;;;;;5044185;28;19955;-84
2023/10/15 07:05:04;;;;;;;;;;;8.70;85.80;;;;;;5043882;28;19917;-83
2023/10/15 07:07:30;;;;;;;;;;;8.70;85.90;;;;;;5048812;28;19999;-83
2023/10/15 07:09:56;;;;;;;;;;;8.80;85.60;;;;;;5044927;28;19913;-83
2023/10/15 07:12:22;;;;;;;;;;;8.80;84.70;;;;;;5049822;28;19924;-83
2023/10/15 07:14:48;;;;;;;;;;;8.70;85.20;;;;;;5053442;28;19909;-83
2023/10/15 07:17:14;;;;;;;;;;;8.70;85.90;;;;;;5042760;28;19913;-83
2023/10/15 07:19:39;;;;;;;;;;;8.70;85.70;;;;;;5039557;28;20389;-83
2023/10/15 07:22:05;;;;;;;;;;;8.60;85.80;;;;;;5040945;28;19967;-85
2023/10/15 07:24:31;;;;;;;;;;;8.60;86.20;;;;;;5041855;28;20592;-85
2023/10/15 07:26:57;;;;;;;;;;;8.60;86.20;;;;;;5041855;28;19924;-84
2023/10/15 07:29:24;;;;;;;;;;;8.70;86.10;;;;;;5045583;28;19962;-84
2023/10/15 07:31:49;;;;;;;;;;;8.80;86.40;;;;;;5035617;28;20413;-84
2023/10/15 07:34:16;;;;;;;;;;;8.80;86.20;;;;;;5040378;28;19988;-83
2023/10/15 07:36:43;;;;;;;;;;;8.90;85.90;;;;;;5034779;28;19912;-83
2023/10/15 07:39:09;;;;;;;;;;;8.90;85.50;;;;;;5036969;28;19996;-83
2023/10/15 07:41:34;;;;;;;;;;;8.90;85.60;;;;;;5046042;28;19952;-83
2023/10/15 07:44:01;;;;;;;;;;;9.00;85.80;;;;;;5040417;28;20375;-85
2023/10/15 07:46:28;;;;;;;;;;;9.00;85.40;;;;;;5039465;28;19921;-84
2023/10/15 07:48:53;;;;;;;;;;;9.00;85.10;;;;;;5033000;28;19913;-82
2023/10/15 07:51:19;;;;;;;;;;;9.00;85.30;;;;;;5043660;28;19913;-83
2023/10/15 07:53:44;;;;;;;;;;;8.90;85.20;;;;;;5039525;28;19963;-83
2023/10/15 07:56:14;;;;;;;;;;;8.80;85.60;;;;;;5038904;28;19920;-83
2023/10/15 07:58:39;;;;;;;;;;;9.00;84.70;;;;;;5037513;28;19959;-83
2023/10/15 08:01:05;;;;;;;;;;;9.00;86.00;;;;;;5034046;28;19917;-83
2023/10/15 08:03:32;;;;;;;;;;;9.00;85.90;;;;;;5038514;28;19920;-83
2023/10/15 08:06:00;;;;;;;;;;;8.90;85.20;;;;;;5041490;28;19909;-83
2023/10/15 08:08:25;;;;;;;;;;;9.00;85.10;;;;;;5045211;28;19932;-83
2023/10/15 08:10:51;;;;;;;;;;;9.10;84.90;;;;;;5044065;28;20359;-83
2023/10/15 08:13:18;;;;;;;;;;;9.20;84.80;;;;;;5043350;28;20007;-83
2023/10/15 08:15:44;;;;;;;;;;;9.20;84.60;;;;;;5041659;28;20007;-83
2023/10/15 08:18:09;;;;;;;;;;;9.10;84.60;;;;;;5038186;28;19956;-82
2023/10/15 08:20:35;;;;;;;;;;;9.10;84.30;;;;;;5037793;28;20282;-84
2023/10/15 08:23:01;;;;;;;;;;;9.20;84.60;;;;;;5037719;28;19966;-85
2023/10/15 08:25:26;;;;;;;;;;;9.10;85.00;;;;;;5037384;28;20019;-84
2023/10/15 08:27:52;;;;;;;;;;;9.30;84.20;;;;;;5037139;28;19921;-84
2023/10/15 08:30:17;;;;;;;;;;;9.40;84.10;;;;;;5036383;28;19957;-84
2023/10/15 08:32:44;;;;;;;;;;;9.60;83.70;;;;;;5036612;28;20349;-85
2023/10/15 08:35:10;;;;;;;;;;;9.70;82.80;;;;;;5034521;28;19909;-84
2023/10/15 08:37:38;;;;;;;;;;;9.80;82.60;;;;;;5038848;28;20409;-83
2023/10/15 08:40:04;;;;;;;;;;;9.70;81.00;;;;;;5035054;28;19920;-84
2023/10/15 08:42:32;;;;;;;;;;;9.70;81.40;;;;;;5038235;28;20375;-84
2023/10/15 08:44:59;;;;;;;;;;;9.60;81.60;;;;;;5045850;28;19915;-83
2023/10/15 08:47:25;;;;;;;;;;;9.50;81.20;;;;;;5057010;28;19905;-84
2023/10/15 08:49:51;;;;;;;;;;;9.50;81.50;;;;;;5050635;28;19921;-85
2023/10/15 08:52:17;;;;;;;;;;;9.50;81.40;;;;;;5033154;28;20453;-84
2023/10/15 08:54:44;;;;;;;;;;;9.50;81.50;;;;;;5035632;28;19966;-82
2023/10/15 08:57:10;;;;;;;;;;;9.40;82.60;;;;;;5035031;28;19914;-83
2023/10/15 08:59:36;;;;;;;;;;;9.50;82.70;;;;;;5032493;28;19920;-82
2023/10/15 09:02:05;;;;;;;;;;;9.70;81.50;;;;;;5037085;28;19970;-83
2023/10/15 09:04:31;;;;;;;;;;;9.80;81.80;;;;;;5032988;28;19925;-83
2023/10/15 09:07:01;;;;;;;;;;;9.90;81.10;;;;;;5034878;28;20306;-83
2023/10/15 09:09:27;;;;;;;;;;;10.00;81.10;;;;;;5035304;28;19944;-82
2023/10/15 09:11:54;;;;;;;;;;;10.10;80.70;;;;;;5052413;28;19960;-81
2023/10/15 09:14:36;;;;;;;;;;;10.10;80.60;;;;;;5044010;28;19992;-82
2023/10/15 09:17:02;;;;;;;;;;;10.20;80.40;;;;;;5037894;28;19971;-82
2023/10/15 09:19:31;;;;;;;;;;;10.30;77.60;;;;;;5037391;28;19913;-82
2023/10/15 09:21:57;;;;;;;;;;;10.10;78.90;;;;;;5035994;28;19982;-82
2023/10/15 09:24:22;;;;;;;;;;;10.20;78.10;;;;;;5026047;28;20394;-81
2023/10/15 09:26:48;;;;;;;;;;;10.20;77.50;;;;;;5033865;28;19946;-82
2023/10/15 09:29:19;;;;;;;;;;;10.20;76.90;;;;;;5037960;28;19913;-82
2023/10/15 09:31:44;;;;;;;;;;;10.10;77.60;;;;;;5035759;28;20502;-84
2023/10/15 09:34:11;;;;;;;;;;;10.00;77.30;;;;;;5040778;28;19986;-82
2023/10/15 09:36:37;;;;;;;;;;;10.00;79.30;;;;;;5030372;28;19913;-82
2023/10/15 09:39:13;;;;;;;;;;;9.90;78.40;;;;;;5036607;28;19913;-82
2023/10/15 09:41:41;;;;;;;;;;;9.90;78.50;;;;;;5038930;28;19912;-82
2023/10/15 09:44:14;;;;;;;;;;;9.90;78.80;;;;;;5033816;28;19917;-83
2023/10/15 09:46:41;;;;;;;;;;;9.90;80.50;;;;;;5033608;28;19924;-82
2023/10/15 09:49:07;;;;;;;;;;;9.90;79.80;;;;;;5032178;28;19914;-82
2023/10/15 09:51:33;;;;;;;;;;;9.70;80.90;;;;;;5038837;28;19978;-82
2023/10/15 09:53:59;;;;;;;;;;;9.70;81.90;;;;;;5037730;28;19928;-82
2023/10/15 09:56:26;;;;;;;;;;;9.90;81.40;;;;;;5036852;28;19914;-85
2023/10/15 09:58:53;;;;;;;;;;;10.00;81.50;;;;;;5038239;28;20004;-85
2023/10/15 10:01:28;;;;;;;;;;;10.10;82.00;;;;;;5033943;28;19917;-86
2023/10/15 10:04:14;;;;;;;;;;;10.10;80.40;;;;;;5056830;28;19924;-85
2023/10/15 10:06:55;;;;;;;;;;;9.90;79.30;;;;;;5043888;28;19914;-87
2023/10/15 10:09:39;;;;;;;;;;;9.90;79.00;;;;;;5042964;28;19917;-86
2023/10/15 10:12:24;;;;;;;;;;;9.80;80.20;;;;;;5041472;28;20371;-85
2023/10/15 10:14:58;;;;;;;;;;;9.80;80.10;;;;;;5041240;28;19929;-86
2023/10/15 10:17:25;;;;;;;;;;;9.80;78.60;;;;;;5042523;28;19921;-85
2023/10/15 10:19:54;;;;;;;;;;;9.90;80.30;;;;;;5035501;28;19920;-87
2023/10/15 10:22:22;;;;;;;;;;;10.00;79.60;;;;;;5031213;28;19913;-85
2023/10/15 10:24:48;;;;;;;;;;;10.10;78.80;;;;;;5033253;28;19947;-86
2023/10/15 10:27:14;;;;;;;;;;;10.10;78.40;;;;;;5043977;28;20375;-86
2023/10/15 10:29:43;;;;;;;;;;;10.10;77.30;;;;;;5039498;28;19920;-86
2023/10/15 10:32:09;;;;;;;;;;;10.10;77.80;;;;;;5039732;28;20043;-85
2023/10/15 10:34:34;;;;;;;;;;;10.10;77.90;;;;;;5038016;28;21741;-85
2023/10/15 10:37:00;;;;;;;;;;;10.00;77.70;;;;;;5040452;28;19913;-85
2023/10/15 10:39:42;;;;;;;;;;;10.10;76.80;;;;;;5040904;28;19921;-86
2023/10/15 10:42:18;;;;;;;;;;;10.10;77.00;;;;;;5040387;28;19918;-85
2023/10/15 10:44:44;;;;;;;;;;;10.10;76.40;;;;;;5041368;28;20267;-85
2023/10/15 10:47:17;;;;;;;;;;;10.10;76.20;;;;;;5037285;28;19940;-84
2023/10/15 10:49:47;;;;;;;;;;;10.10;74.90;;;;;;5033173;28;19913;-84
2023/10/15 10:52:17;;;;;;;;;;;10.10;76.20;;;;;;5034902;28;19920;-84
2023/10/15 10:54:43;;;;;;;;;;;10.20;74.70;;;;;;5041254;28;19909;-85
2023/10/15 10:57:09;;;;;;;;;;;10.10;75.20;;;;;;5042769;28;19929;-82
2023/10/15 10:59:36;;;;;;;;;;;10.10;75.60;;;;;;5039431;28;19909;-84
2023/10/15 11:02:05;;;;;;;;;;;10.20;75.00;;;;;;5035948;28;19917;-84
2023/10/15 11:04:30;;;;;;;;;;;10.30;75.30;;;;;;5032281;28;19917;-83
2023/10/15 11:06:56;;;;;;;;;;;10.30;74.10;;;;;;5038284;28;19913;-86
2023/10/15 11:09:24;;;;;;;;;;;10.30;75.10;;;;;;5036639;28;20000;-85
2023/10/15 11:11:51;;;;;;;;;;;10.40;72.80;;;;;;5033662;28;19939;-85
2023/10/15 11:14:20;;;;;;;;;;;10.40;73.40;;;;;;5037650;28;19917;-84
2023/10/15 11:16:45;;;;;;;;;;;10.50;74.20;;;;;;5035146;28;19956;-84
2023/10/15 11:19:14;;;;;;;;;;;10.60;71.00;;;;;;5038362;28;19917;-86
2023/10/15 11:21:40;;;;;;;;;;;10.60;71.60;;;;;;5045198;28;20425;-85
2023/10/15 11:24:09;;;;;;;;;;;10.60;71.40;;;;;;5036432;28;19924;-83
2023/10/15 11:26:35;;;;;;;;;;;10.60;71.70;;;;;;5041157;28;19916;-83
2023/10/15 11:29:01;;;;;;;;;;;10.60;71.70;;;;;;5053675;28;19915;-81
2023/10/15 11:31:27;;;;;;;;;;;10.70;72.00;;;;;;5047675;28;19956;-83
2023/10/15 11:33:54;;;;;;;;;;;10.70;71.80;;;;;;5052844;28;19925;-84
2023/10/15 11:36:20;;;;;;;;;;;10.60;72.40;;;;;;5035769;28;19917;-83
2023/10/15 11:38:47;;;;;;;;;;;10.50;73.70;;;;;;5034121;28;19933;-82
2023/10/15 11:41:12;;;;;;;;;;;10.40;73.10;;;;;;5037924;28;20004;-84
2023/10/15 11:43:43;;;;;;;;;;;10.50;72.80;;;;;;5033680;28;19975;-87
2023/10/15 11:46:10;;;;;;;;;;;10.60;71.90;;;;;;5051476;28;19905;-86
2023/10/15 11:48:36;;;;;;;;;;;10.60;71.90;;;;;;5055155;28;19924;-86
2023/10/15 11:51:09;;;;;;;;;;;10.60;72.30;;;;;;5054915;28;19917;-86
2023/10/15 11:53:34;;;;;;;;;;;10.70;70.50;;;;;;5033922;28;19917;-83
2023/10/15 11:56:02;;;;;;;;;;;10.90;70.00;;;;;;5060714;22;19930;-82
2023/10/15 11:58:31;;;;;;;;;;;11.00;70.70;;;;;;5073456;28;19930;-82
2023/10/15 12:00:58;;;;;;;;;;;11.10;69.30;;;;;;5071864;28;19912;-80
2023/10/15 12:03:24;;;;;;;;;;;11.10;67.70;;;;;;5073436;28;19927;-81
2023/10/15 12:05:51;;;;;;;;;;;11.00;67.40;;;;;;5075130;28;19912;-81
2023/10/15 12:08:21;;;;;;;;;;;11.00;67.30;;;;;;5070598;28;19937;-81
2023/10/15 12:10:47;;;;;;;;;;;11.20;66.80;;;;;;5072084;28;19921;-81
2023/10/15 12:13:14;;;;;;;;;;;11.10;69.00;;;;;;5069184;28;19912;-80
2023/10/15 12:15:40;;;;;;;;;;;11.10;67.90;;;;;;5068248;28;19971;-82
2023/10/15 12:18:06;;;;;;;;;;;11.10;68.70;;;;;;5073158;28;19912;-82
2023/10/15 12:20:32;;;;;;;;;;;11.10;68.00;;;;;;5069279;28;19974;-82
2023/10/15 12:22:57;;;;;;;;;;;11.00;66.50;;;;;;5069491;28;19912;-80
2023/10/15 12:25:23;;;;;;;;;;;11.00;66.60;;;;;;5067657;28;19916;-80
2023/10/15 12:27:51;;;;;;;;;;;10.80;68.70;;;;;;5069635;28;19965;-80
2023/10/15 12:30:23;;;;;;;;;;;10.70;69.50;;;;;;5071537;28;19919;-80
2023/10/15 12:32:53;;;;;;;;;;;10.60;68.30;;;;;;5072983;28;20468;-79
2023/10/15 12:35:22;;;;;;;;;;;10.70;69.70;;;;;;5071249;28;19920;-79
2023/10/15 12:37:49;;;;;;;;;;;10.70;66.90;;;;;;5072540;28;19940;-79
2023/10/15 12:40:22;;;;;;;;;;;10.80;66.00;;;;;;5071194;28;19919;-80
2023/10/15 12:42:48;;;;;;;;;;;10.90;66.90;;;;;;5074709;28;19912;-82
2023/10/15 12:45:14;;;;;;;;;;;10.90;67.60;;;;;;5071242;28;19916;-83
2023/10/15 12:47:39;;;;;;;;;;;10.90;68.30;;;;;;5067513;28;19917;-82
2023/10/15 12:50:08;;;;;;;;;;;10.90;68.40;;;;;;5066310;28;19927;-81
2023/10/15 12:52:35;;;;;;;;;;;10.80;69.70;;;;;;5066894;28;19917;-81
2023/10/15 12:55:01;;;;;;;;;;;10.80;68.70;;;;;;5053870;28;19917;-82
2023/10/15 12:57:26;;;;;;;;;;;10.90;68.80;;;;;;5064994;28;19994;-82
2023/10/15 12:59:52;;;;;;;;;;;10.70;69.00;;;;;;5070431;28;19917;-84
2023/10/15 13:02:20;;;;;;;;;;;10.60;69.70;;;;;;5070073;28;19920;-82
2023/10/15 13:04:46;;;;;;;;;;;10.60;69.60;;;;;;5068587;28;19921;-83
2023/10/15 13:07:12;;;;;;;;;;;10.60;69.50;;;;;;5068660;28;19912;-81
2023/10/15 13:09:38;;;;;;;;;;;10.50;69.70;;;;;;5067149;28;19916;-81
2023/10/15 13:12:06;;;;;;;;;;;10.60;69.60;;;;;;5083505;28;19943;-80
2023/10/15 13:14:33;;;;;;;;;;;10.60;69.10;;;;;;5068521;28;20031;-79
2023/10/15 13:16:59;;;;;;;;;;;10.70;69.50;;;;;;5073719;28;19912;-80
2023/10/15 13:19:26;;;;;;;;;;;10.90;69.80;;;;;;5068955;28;20427;-80
2023/10/15 13:21:51;;;;;;;;;;;11.00;68.50;;;;;;5065590;28;19995;-80
2023/10/15 13:24:17;;;;;;;;;;;11.10;67.40;;;;;;5065347;28;20030;-81
2023/10/15 13:26:45;;;;;;;;;;;11.20;67.60;;;;;;5068724;28;20400;-81
2023/10/15 13:29:11;;;;;;;;;;;11.30;65.70;;;;;;5066035;28;19956;-82
2023/10/15 13:31:37;;;;;;;;;;;11.30;65.90;;;;;;5069590;28;20369;-81
2023/10/15 13:34:05;;;;;;;;;;;11.30;65.90;;;;;;5072244;28;19963;-81
2023/10/15 13:36:31;;;;;;;;;;;11.30;65.70;;;;;;5070889;28;19912;-81
2023/10/15 13:38:59;;;;;;;;;;;11.10;65.40;;;;;;5072679;28;19952;-81
2023/10/15 13:41:25;;;;;;;;;;;11.20;66.20;;;;;;5075814;28;19963;-80
2023/10/15 13:43:51;;;;;;;;;;;11.10;65.40;;;;;;5073548;28;19917;-81
2023/10/15 13:46:16;;;;;;;;;;;11.20;65.30;;;;;;5073654;28;20424;-81
2023/10/15 13:48:42;;;;;;;;;;;11.20;64.20;;;;;;5072438;28;20312;-81
2023/10/15 13:51:07;;;;;;;;;;;11.10;64.60;;;;;;5076975;28;19913;-81
2023/10/15 13:53:35;;;;;;;;;;;11.10;65.30;;;;;;5078408;28;19919;-81
2023/10/15 13:56:03;;;;;;;;;;;11.10;65.40;;;;;;5088781;28;20094;-82
2023/10/15 13:58:28;;;;;;;;;;;11.10;64.70;;;;;;5069106;28;20003;-81
2023/10/15 14:00:54;;;;;;;;;;;11.10;66.50;;;;;;5069560;28;19948;-82
2023/10/15 14:03:19;;;;;;;;;;;11.10;64.50;;;;;;5073272;28;19971;-84
2023/10/15 14:05:45;;;;;;;;;;;11.30;64.00;;;;;;5073284;28;19920;-80
2023/10/15 14:08:10;;;;;;;;;;;11.30;63.50;;;;;;5072941;28;19912;-82
2023/10/15 14:10:37;;;;;;;;;;;11.20;65.00;;;;;;5062989;28;19917;-80
2023/10/15 14:13:05;;;;;;;;;;;11.30;63.60;;;;;;5069176;28;20428;-84
2023/10/15 14:15:32;;;;;;;;;;;11.40;63.30;;;;;;5066981;28;20015;-84
2023/10/15 14:17:57;;;;;;;;;;;11.40;63.20;;;;;;5062297;28;19919;-82
2023/10/15 14:20:23;;;;;;;;;;;11.30;64.60;;;;;;5067458;28;19912;-82
2023/10/15 14:22:50;;;;;;;;;;;11.30;63.90;;;;;;5070773;28;19913;-84
2023/10/15 14:25:16;;;;;;;;;;;11.20;64.20;;;;;;5070181;28;19924;-81
2023/10/15 14:27:43;;;;;;;;;;;11.20;66.00;;;;;;5073867;28;19959;-83
2023/10/15 14:30:10;;;;;;;;;;;11.10;64.40;;;;;;5071957;28;19912;-82
2023/10/15 14:32:36;;;;;;;;;;;11.10;63.90;;;;;;5072293;28;19983;-83
2023/10/15 14:35:04;;;;;;;;;;;11.10;64.90;;;;;;5069538;28;19967;-82
2023/10/15 14:37:30;;;;;;;;;;;11.20;62.90;;;;;;5066562;28;20293;-81
2023/10/15 14:39:55;;;;;;;;;;;11.20;65.00;;;;;;5067079;28;20274;-80
2023/10/15 14:42:21;;;;;;;;;;;11.30;64.60;;;;;;5070368;28;19919;-80
2023/10/15 14:44:46;;;;;;;;;;;11.40;63.90;;;;;;5068983;28;19924;-79